Time;durP1;ratioP1;P1;durP2;ratioP2;P2;SDS_P1;SDS_P2;PMS_P1;PMS_P2;Temp;Humidity;BMP_temperature;BMP_pressure;BME280_temperature;BME280_humidity;BME280_pressure;Samples;Min_cycle;Max_cycle;Signal;HPM_P1;HPM_P2
2022/05/17 00:01:30;;;;;;;3.65;1.33;;;21.40;55.10;;;;;;5092769;28;20252;-66
2022/05/17 00:03:55;;;;;;;1.67;1.15;;;21.40;55.20;;;;;;5091717;28;20173;-66
2022/05/17 00:06:21;;;;;;;1.67;1.20;;;21.40;55.10;;;;;;5092317;28;20217;-66
2022/05/17 00:08:46;;;;;;;2.10;1.27;;;21.40;55.10;;;;;;5092578;28;20174;-67
2022/05/17 00:11:13;;;;;;;2.28;1.20;;;21.40;55.10;;;;;;5092040;28;20208;-68
2022/05/17 00:13:39;;;;;;;2.05;1.30;;;21.40;55.20;;;;;;5094944;28;20188;-69
2022/05/17 00:16:04;;;;;;;2.05;1.33;;;21.40;55.20;;;;;;5096492;28;20169;-67
2022/05/17 00:18:30;;;;;;;1.88;1.50;;;21.40;55.20;;;;;;5095780;28;20358;-68
2022/05/17 00:20:56;;;;;;;2.70;1.30;;;21.40;55.20;;;;;;5096312;28;20180;-69
2022/05/17 00:23:22;;;;;;;1.73;1.30;;;21.40;55.20;;;;;;5095206;28;20182;-68
2022/05/17 00:25:48;;;;;;;2.15;1.60;;;21.30;55.10;;;;;;5094366;28;20194;-68
2022/05/17 00:28:15;;;;;;;2.28;1.10;;;21.40;55.20;;;;;;5096402;28;20204;-67
2022/05/17 00:30:41;;;;;;;1.60;1.30;;;21.30;55.10;;;;;;5096313;28;20190;-67
2022/05/17 00:33:06;;;;;;;1.95;1.35;;;21.30;55.10;;;;;;5094507;28;20170;-67
2022/05/17 00:35:32;;;;;;;2.03;1.10;;;21.30;55.10;;;;;;5096228;28;20226;-67
2022/05/17 00:37:57;;;;;;;1.95;1.33;;;21.30;55.10;;;;;;5095646;28;20676;-67
2022/05/17 00:40:23;;;;;;;2.05;1.30;;;21.30;55.10;;;;;;5095304;28;20188;-67
2022/05/17 00:42:49;;;;;;;2.00;1.23;;;21.30;55.10;;;;;;5095817;28;20699;-67
2022/05/17 00:45:14;;;;;;;3.17;1.30;;;21.30;55.10;;;;;;5096202;28;20174;-67
2022/05/17 00:47:42;;;;;;;2.67;1.40;;;21.30;55.10;;;;;;5095175;28;20174;-67
2022/05/17 00:50:33;;;;;;;3.00;1.73;;;21.30;55.10;;;;;;5095981;28;20198;-68
2022/05/17 00:53:10;;;;;;;2.55;1.30;;;21.30;55.10;;;;;;5094826;28;20266;-68
2022/05/17 00:55:38;;;;;;;1.50;1.30;;;21.30;55.10;;;;;;5094520;28;20234;-68
2022/05/17 00:58:09;;;;;;;2.20;1.40;;;21.30;55.10;;;;;;5094269;28;20570;-68
2022/05/17 01:00:37;;;;;;;2.22;1.45;;;21.30;55.10;;;;;;5094698;28;20174;-67
2022/05/17 01:03:07;;;;;;;2.60;1.30;;;21.30;55.10;;;;;;5094310;28;20676;-67
2022/05/17 01:05:40;;;;;;;1.73;1.30;;;21.30;55.10;;;;;;5094311;28;20174;-67
2022/05/17 01:08:06;;;;;;;1.98;1.20;;;21.20;55.00;;;;;;5093776;28;20178;-67
2022/05/17 01:10:32;;;;;;;3.42;1.65;;;21.30;55.10;;;;;;5095609;28;20185;-68
2022/05/17 01:15:42;;;;;;;1.85;1.58;;;21.20;55.00;;;;;;5093567;28;20691;-68
2022/05/17 01:18:08;;;;;;;2.03;1.60;;;21.20;55.00;;;;;;5095204;28;20213;-69
2022/05/17 01:20:33;;;;;;;1.85;1.23;;;21.20;55.10;;;;;;5095304;28;20169;-68
2022/05/17 01:22:59;;;;;;;2.83;1.73;;;21.20;55.10;;;;;;5094490;28;20170;-69
2022/05/17 01:25:26;;;;;;;3.28;1.63;;;21.20;55.10;;;;;;5095278;28;20216;-69
2022/05/17 01:27:54;;;;;;;2.97;1.40;;;21.20;55.10;;;;;;5094482;28;20170;-68
2022/05/17 01:30:22;;;;;;;1.83;1.55;;;21.20;55.10;;;;;;5094125;28;20174;-68
2022/05/17 01:32:47;;;;;;;1.92;1.73;;;21.20;55.10;;;;;;5094907;28;20181;-67
2022/05/17 01:35:13;;;;;;;2.55;1.83;;;21.20;55.70;;;;;;5094470;28;20663;-67
2022/05/17 01:37:38;;;;;;;1.83;1.38;;;21.20;55.00;;;;;;5094607;28;20174;-68
2022/05/17 01:40:04;;;;;;;1.30;1.02;;;21.20;55.10;;;;;;5095039;28;20169;-67
2022/05/17 01:42:30;;;;;;;1.90;1.40;;;21.20;55.10;;;;;;5094118;28;20180;-68
2022/05/17 01:44:55;;;;;;;2.25;1.48;;;21.10;55.10;;;;;;5094705;28;20166;-67
2022/05/17 01:47:21;;;;;;;1.52;1.40;;;21.10;55.00;;;;;;5094936;28;20170;-68
2022/05/17 01:49:46;;;;;;;1.88;1.50;;;21.10;55.00;;;;;;5093609;28;20186;-67
2022/05/17 01:52:12;;;;;;;1.63;1.45;;;21.10;55.00;;;;;;5094697;28;20182;-68
2022/05/17 01:54:37;;;;;;;2.38;1.50;;;21.10;55.10;;;;;;5094487;28;20243;-68
2022/05/17 01:57:03;;;;;;;2.60;1.70;;;21.20;55.10;;;;;;5093886;28;20230;-68
2022/05/17 01:59:29;;;;;;;3.00;1.48;;;21.10;55.00;;;;;;5094379;28;20707;-68
2022/05/17 02:01:54;;;;;;;4.78;2.00;;;21.10;55.00;;;;;;5094219;28;20174;-67
2022/05/17 02:04:20;;;;;;;2.08;1.52;;;21.10;55.00;;;;;;5093859;28;20201;-67
2022/05/17 02:06:45;;;;;;;2.10;1.13;;;21.10;55.00;;;;;;5094148;28;20222;-69
2022/05/17 02:09:11;;;;;;;2.50;1.60;;;21.10;55.00;;;;;;5094520;28;20529;-68
2022/05/17 02:11:36;;;;;;;1.35;1.10;;;21.10;55.00;;;;;;5093492;28;20173;-69
2022/05/17 02:14:02;;;;;;;2.30;1.60;;;21.10;55.10;;;;;;5094272;28;20257;-69
2022/05/17 02:16:28;;;;;;;2.20;1.30;;;21.10;55.10;;;;;;5094111;28;20178;-68
2022/05/17 02:18:57;;;;;;;1.42;1.10;;;21.10;55.10;;;;;;5092008;28;20214;-69
2022/05/17 02:21:23;;;;;;;1.63;1.25;;;21.10;55.10;;;;;;5092923;28;20276;-68
2022/05/17 02:23:48;;;;;;;2.70;1.60;;;21.10;55.10;;;;;;5092851;28;20603;-68
2022/05/17 02:26:14;;;;;;;2.00;1.60;;;21.10;55.10;;;;;;5092679;28;20174;-68
2022/05/17 02:28:43;;;;;;;1.20;1.10;;;21.10;55.10;;;;;;5092959;28;20226;-68
2022/05/17 02:31:11;;;;;;;2.42;1.55;;;21.00;55.00;;;;;;5092345;28;20235;-68
2022/05/17 02:33:37;;;;;;;1.58;1.30;;;21.10;55.10;;;;;;5092879;28;20253;-68
2022/05/17 02:36:03;;;;;;;3.10;1.60;;;21.00;55.10;;;;;;5092472;28;20704;-68
2022/05/17 02:38:28;;;;;;;1.50;1.23;;;21.00;55.00;;;;;;5092189;28;20296;-66
2022/05/17 02:40:54;;;;;;;1.80;1.10;;;21.00;55.10;;;;;;5092438;28;20173;-67
2022/05/17 02:43:19;;;;;;;2.22;1.40;;;21.00;55.10;;;;;;5093111;28;20262;-67
2022/05/17 02:45:44;;;;;;;1.95;1.70;;;21.00;55.10;;;;;;5091691;28;20186;-66
2022/05/17 02:48:10;;;;;;;1.98;1.23;;;21.00;55.10;;;;;;5092657;28;20558;-66
2022/05/17 02:50:35;;;;;;;1.35;1.23;;;21.00;55.00;;;;;;5092611;28;20188;-66
2022/05/17 02:53:01;;;;;;;1.83;1.38;;;21.00;55.10;;;;;;5091943;28;20170;-67
2022/05/17 02:55:26;;;;;;;1.60;1.50;;;21.00;55.10;;;;;;5092570;28;20173;-68
2022/05/17 02:57:53;;;;;;;1.55;1.42;;;21.00;55.10;;;;;;5092090;28;20542;-67
2022/05/17 03:00:19;;;;;;;1.65;1.20;;;21.00;55.10;;;;;;5091705;28;20531;-67
2022/05/17 03:02:44;;;;;;;2.40;1.50;;;21.00;55.10;;;;;;5092280;28;20635;-67
2022/05/17 03:05:10;;;;;;;2.22;1.58;;;21.00;55.10;;;;;;5092693;28;20178;-68
2022/05/17 03:07:36;;;;;;;1.55;1.45;;;21.00;55.10;;;;;;5089385;28;20229;-66
2022/05/17 03:10:02;;;;;;;2.08;1.60;;;21.00;55.10;;;;;;5091681;28;20166;-67
2022/05/17 03:12:27;;;;;;;3.08;1.80;;;21.00;55.10;;;;;;5091626;28;20174;-67
2022/05/17 03:14:53;;;;;;;2.80;1.50;;;21.00;55.10;;;;;;5090366;28;20643;-70
2022/05/17 03:17:18;;;;;;;1.63;1.50;;;21.00;55.10;;;;;;5091733;28;20182;-69
2022/05/17 03:19:44;;;;;;;2.72;1.40;;;21.00;55.10;;;;;;5091026;28;20236;-69
2022/05/17 03:22:10;;;;;;;2.40;1.50;;;21.00;55.10;;;;;;5090845;28;20170;-69
2022/05/17 03:24:36;;;;;;;2.10;1.40;;;21.00;55.20;;;;;;5091437;28;20184;-69
2022/05/17 03:27:02;;;;;;;1.35;1.20;;;20.90;55.10;;;;;;5091324;28;20170;-69
2022/05/17 03:29:28;;;;;;;2.30;1.63;;;21.00;55.20;;;;;;5090471;28;20213;-68
2022/05/17 03:31:53;;;;;;;1.90;1.40;;;21.00;55.20;;;;;;5091344;28;20176;-68
2022/05/17 03:34:19;;;;;;;1.50;1.33;;;21.00;55.20;;;;;;5090363;28;20543;-68
2022/05/17 03:36:44;;;;;;;2.33;1.40;;;20.90;55.20;;;;;;5090922;28;20178;-68
2022/05/17 03:39:10;;;;;;;1.50;1.40;;;20.90;55.20;;;;;;5091043;28;20572;-68
2022/05/17 03:41:35;;;;;;;1.63;1.42;;;20.90;55.20;;;;;;5090041;28;20178;-68
2022/05/17 03:44:01;;;;;;;1.98;1.40;;;20.90;55.20;;;;;;5090932;28;20174;-68
2022/05/17 03:46:26;;;;;;;1.88;1.55;;;20.90;55.20;;;;;;5090747;28;20204;-67
2022/05/17 03:48:52;;;;;;;3.13;1.40;;;20.90;55.20;;;;;;5089363;28;20178;-68
2022/05/17 03:51:18;;;;;;;1.23;1.13;;;20.90;55.20;;;;;;5090778;28;20577;-69
2022/05/17 03:53:44;;;;;;;2.45;1.55;;;20.90;55.20;;;;;;5090819;28;20193;-68
2022/05/17 03:56:10;;;;;;;2.78;1.60;;;20.90;55.20;;;;;;5090198;28;20166;-68
2022/05/17 03:58:35;;;;;;;1.67;1.38;;;20.90;55.20;;;;;;5090447;28;20225;-68
2022/05/17 04:01:01;;;;;;;1.23;1.13;;;20.90;55.20;;;;;;5090801;28;20170;-68
2022/05/17 04:03:27;;;;;;;1.75;1.50;;;20.90;55.20;;;;;;5090295;28;20181;-68
2022/05/17 04:05:52;;;;;;;2.35;1.42;;;20.90;55.20;;;;;;5055468;28;1005670;-67
2022/05/17 04:08:18;;;;;;;2.15;1.50;;;20.90;55.20;;;;;;5091807;28;20178;-68
2022/05/17 04:10:43;;;;;;;1.48;1.38;;;20.90;55.20;;;;;;5090586;28;20182;-68
2022/05/17 04:13:09;;;;;;;1.60;1.45;;;20.90;55.10;;;;;;5091549;28;20636;-69
2022/05/17 04:15:34;;;;;;;1.50;1.38;;;20.90;55.20;;;;;;5091561;28;20170;-69
2022/05/17 04:18:00;;;;;;;2.30;1.42;;;20.90;55.30;;;;;;5091013;28;20196;-69
2022/05/17 04:20:26;;;;;;;1.50;1.40;;;21.00;55.20;;;;;;5091736;28;20219;-70
2022/05/17 04:22:53;;;;;;;1.52;1.42;;;20.90;55.10;;;;;;5091185;28;20702;-68
2022/05/17 04:25:23;;;;;;;1.15;1.15;;;20.90;55.10;;;;;;5090922;28;20532;-68
2022/05/17 04:27:49;;;;;;;1.63;1.25;;;20.90;55.10;;;;;;5091250;28;20167;-67
2022/05/17 04:30:15;;;;;;;1.83;1.50;;;21.10;55.20;;;;;;5091852;28;20177;-67
2022/05/17 04:32:40;;;;;;;1.40;1.30;;;21.00;55.20;;;;;;5090582;28;20629;-67
2022/05/17 04:35:06;;;;;;;1.23;1.13;;;20.90;55.10;;;;;;5091743;28;20189;-66
2022/05/17 04:37:36;;;;;;;2.22;1.40;;;20.90;55.10;;;;;;5090906;28;20177;-68
2022/05/17 04:40:04;;;;;;;2.25;1.50;;;20.90;55.10;;;;;;5091389;28;20214;-67
2022/05/17 04:42:30;;;;;;;1.75;1.63;;;21.00;55.10;;;;;;5091238;28;20181;-69
2022/05/17 04:44:55;;;;;;;1.98;1.77;;;20.90;55.10;;;;;;5090641;28;20186;-67
2022/05/17 04:47:21;;;;;;;1.80;1.70;;;21.00;55.10;;;;;;5091726;28;20204;-68
2022/05/17 04:49:46;;;;;;;1.48;1.38;;;20.90;55.10;;;;;;5091373;28;20648;-66
2022/05/17 04:52:12;;;;;;;2.13;1.80;;;21.20;55.30;;;;;;5090630;28;20177;-68
2022/05/17 04:54:37;;;;;;;2.00;1.73;;;20.90;55.10;;;;;;5090871;28;20170;-67
2022/05/17 04:57:04;;;;;;;2.22;1.67;;;20.90;55.20;;;;;;5091558;28;20212;-67
2022/05/17 04:59:29;;;;;;;2.55;1.70;;;20.90;55.20;;;;;;5092836;28;20648;-67
2022/05/17 05:01:55;;;;;;;2.30;1.60;;;20.90;55.20;;;;;;5094606;28;20264;-66
2022/05/17 05:04:21;;;;;;;2.40;1.52;;;20.90;55.20;;;;;;5095071;28;20178;-67
2022/05/17 05:06:46;;;;;;;2.35;1.65;;;21.00;55.20;;;;;;5093664;28;20753;-66
2022/05/17 05:09:11;;;;;;;3.08;1.60;;;21.00;55.20;;;;;;5094803;28;20536;-68
2022/05/17 05:11:38;;;;;;;2.03;1.60;;;20.90;55.20;;;;;;5094371;28;20228;-67
2022/05/17 05:14:03;;;;;;;2.03;1.80;;;21.00;55.20;;;;;;5094112;28;20235;-68
2022/05/17 05:16:29;;;;;;;3.10;1.63;;;21.00;55.20;;;;;;5094433;28;20178;-67
2022/05/17 05:18:54;;;;;;;1.80;1.70;;;21.00;55.20;;;;;;5093982;28;20227;-68
2022/05/17 05:21:20;;;;;;;1.55;1.45;;;21.00;55.10;;;;;;5093639;28;20193;-68
2022/05/17 05:23:45;;;;;;;1.80;1.50;;;21.00;55.20;;;;;;5093993;28;20268;-67
2022/05/17 05:26:12;;;;;;;1.55;1.45;;;21.00;55.20;;;;;;5094328;28;20184;-67
2022/05/17 05:28:37;;;;;;;3.35;1.90;;;21.00;55.20;;;;;;5093541;28;20212;-67
2022/05/17 05:31:03;;;;;;;2.83;1.80;;;21.00;55.20;;;;;;5094061;28;20387;-66
2022/05/17 05:33:30;;;;;;;1.67;1.50;;;21.00;55.20;;;;;;5094385;28;20178;-66
2022/05/17 05:35:56;;;;;;;2.67;1.45;;;21.00;55.20;;;;;;5093220;28;20173;-67
2022/05/17 05:38:21;;;;;;;2.83;1.77;;;21.00;55.20;;;;;;5093914;28;20205;-67
2022/05/17 05:40:47;;;;;;;1.80;1.40;;;21.10;55.20;;;;;;5093458;28;20201;-66
2022/05/17 05:43:12;;;;;;;3.03;1.67;;;21.00;55.30;;;;;;5093806;28;20177;-66
2022/05/17 05:45:38;;;;;;;1.63;1.52;;;21.10;55.20;;;;;;5093892;28;20174;-66
2022/05/17 05:48:04;;;;;;;1.98;1.77;;;21.10;55.20;;;;;;5093414;28;20540;-67
2022/05/17 05:50:29;;;;;;;2.22;1.80;;;21.10;55.20;;;;;;5093786;28;20209;-67
2022/05/17 05:52:59;;;;;;;2.95;1.60;;;21.10;55.30;;;;;;5093763;28;20208;-67
2022/05/17 05:55:24;;;;;;;3.38;1.90;;;21.10;55.30;;;;;;5093332;28;20227;-67
2022/05/17 05:57:50;;;;;;;1.60;1.48;;;21.10;55.30;;;;;;5093497;28;20582;-67
2022/05/17 06:00:17;;;;;;;3.13;1.92;;;21.10;55.30;;;;;;5093777;28;20257;-66
2022/05/17 06:02:42;;;;;;;2.10;1.50;;;21.10;55.30;;;;;;5092864;28;20204;-66
2022/05/17 06:05:08;;;;;;;3.08;1.60;;;21.10;55.30;;;;;;5093590;28;20166;-66
2022/05/17 06:07:35;;;;;;;1.70;1.48;;;21.10;55.30;;;;;;5093370;28;20234;-66
2022/05/17 06:10:02;;;;;;;2.92;1.83;;;21.10;55.30;;;;;;5091779;28;20178;-67
2022/05/17 06:12:27;;;;;;;3.00;1.45;;;21.10;55.40;;;;;;5093724;28;20190;-68
2022/05/17 06:14:53;;;;;;;2.72;2.03;;;21.10;55.40;;;;;;5093094;28;20184;-68
2022/05/17 06:17:23;;;;;;;1.58;1.48;;;21.10;55.40;;;;;;5092603;28;20536;-68
2022/05/17 06:19:49;;;;;;;2.05;1.55;;;21.10;55.40;;;;;;5093182;28;20251;-68
2022/05/17 06:22:15;;;;;;;1.45;1.35;;;21.10;55.40;;;;;;5093056;28;20204;-67
2022/05/17 06:24:45;;;;;;;2.05;1.50;;;21.10;55.40;;;;;;5092323;28;20637;-67
2022/05/17 06:27:10;;;;;;;1.60;1.45;;;21.10;55.50;;;;;;5093092;28;20570;-66
2022/05/17 06:29:36;;;;;;;6.38;2.15;;;21.10;55.40;;;;;;5093128;28;20192;-68
2022/05/17 06:32:01;;;;;;;3.08;1.65;;;21.10;55.60;;;;;;5092859;28;20236;-69
2022/05/17 06:34:27;;;;;;;2.40;1.67;;;21.10;55.70;;;;;;5093137;28;20249;-69
2022/05/17 06:36:52;;;;;;;2.47;1.77;;;21.20;55.50;;;;;;5092847;28;20227;-71
2022/05/17 06:39:21;;;;;;;2.42;1.58;;;21.10;55.40;;;;;;5092354;28;20258;-71
2022/05/17 06:41:47;;;;;;;4.07;1.40;;;21.20;55.50;;;;;;5092761;28;20178;-70
2022/05/17 06:44:13;;;;;;;2.70;1.48;;;21.20;55.50;;;;;;5092054;28;20208;-69
2022/05/17 06:46:38;;;;;;;3.28;1.52;;;21.20;55.50;;;;;;5092552;28;20247;-69
2022/05/17 06:49:04;;;;;;;2.95;1.60;;;21.20;55.50;;;;;;5093114;28;20186;-69
2022/05/17 06:51:29;;;;;;;3.38;1.60;;;21.20;55.50;;;;;;5091890;28;20185;-70
2022/05/17 06:53:55;;;;;;;1.70;1.30;;;21.20;55.50;;;;;;5092013;28;20177;-70
2022/05/17 06:56:20;;;;;;;2.90;1.45;;;21.10;55.40;;;;;;5092694;28;20192;-71
2022/05/17 06:58:46;;;;;;;3.40;1.50;;;21.20;55.50;;;;;;5091641;28;20675;-71
2022/05/17 07:01:11;;;;;;;2.22;2.03;;;21.20;55.50;;;;;;5092600;28;20182;-70
2022/05/17 07:03:37;;;;;;;3.40;1.60;;;21.30;55.40;;;;;;5092338;28;20258;-70
2022/05/17 07:06:03;;;;;;;1.77;1.42;;;21.30;55.30;;;;;;5091618;28;20228;-69
2022/05/17 07:08:28;;;;;;;1.73;1.50;;;21.30;55.20;;;;;;5092646;28;20632;-70
2022/05/17 07:13:38;;;;;;;4.57;1.63;;;21.40;55.30;;;;;;5091449;28;20545;-70
2022/05/17 07:16:04;;;;;;;2.85;1.58;;;21.30;55.20;;;;;;5092409;28;20185;-71
2022/05/17 07:18:29;;;;;;;3.65;1.40;;;21.30;55.30;;;;;;5092139;28;20264;-72
2022/05/17 07:20:55;;;;;;;3.42;1.45;;;21.30;55.30;;;;;;5091465;28;20170;-71
2022/05/17 07:23:21;;;;;;;3.13;1.73;;;21.30;55.30;;;;;;5092606;28;20224;-72
2022/05/17 07:25:47;;;;;;;5.97;1.65;;;21.30;55.30;;;;;;5092106;28;20178;-71
2022/05/17 07:28:17;;;;;;;2.75;1.70;;;21.30;55.30;;;;;;5091538;28;20176;-70
2022/05/17 07:30:43;;;;;;;2.35;1.48;;;21.30;55.30;;;;;;5092002;28;20170;-70
2022/05/17 07:33:08;;;;;;;2.05;1.35;;;21.30;55.30;;;;;;5091914;28;20190;-70
2022/05/17 07:35:34;;;;;;;3.35;1.60;;;21.30;55.40;;;;;;5091671;28;20215;-70
2022/05/17 07:38:01;;;;;;;1.85;1.38;;;21.20;55.40;;;;;;5091861;28;20178;-69
2022/05/17 07:40:27;;;;;;;1.52;1.42;;;21.30;55.50;;;;;;5091572;28;20181;-70
2022/05/17 07:42:53;;;;;;;2.90;1.60;;;21.20;55.40;;;;;;5091728;28;20642;-69
2022/05/17 07:45:18;;;;;;;5.13;1.40;;;21.20;55.50;;;;;;5091903;28;20189;-69
2022/05/17 07:47:44;;;;;;;3.58;1.85;;;21.20;55.50;;;;;;5090958;28;20289;-67
2022/05/17 07:50:09;;;;;;;4.93;1.80;;;21.20;55.50;;;;;;5092321;28;20238;-68
2022/05/17 07:52:35;;;;;;;3.03;1.50;;;21.20;55.50;;;;;;5091603;28;20257;-68
2022/05/17 07:55:01;;;;;;;3.15;1.60;;;21.20;55.50;;;;;;5091309;28;20180;-70
2022/05/17 07:57:27;;;;;;;2.28;1.50;;;21.20;55.50;;;;;;5091680;28;20547;-71
2022/05/17 07:59:53;;;;;;;2.75;1.75;;;21.20;55.50;;;;;;5091547;28;20224;-68
2022/05/17 08:02:18;;;;;;;2.53;1.23;;;21.20;55.50;;;;;;5091015;28;20169;-70
2022/05/17 08:04:44;;;;;;;1.23;0.90;;;21.20;55.50;;;;;;5091448;28;20251;-69
2022/05/17 08:07:09;;;;;;;1.25;1.15;;;21.20;55.50;;;;;;5091974;28;20267;-70
2022/05/17 08:09:36;;;;;;;3.05;1.50;;;21.20;55.50;;;;;;5090704;28;20208;-71
2022/05/17 08:12:03;;;;;;;2.22;1.30;;;21.10;55.50;;;;;;5091875;28;20310;-70
2022/05/17 08:14:28;;;;;;;2.05;1.52;;;21.10;55.50;;;;;;5091826;28;20560;-71
2022/05/17 08:16:54;;;;;;;2.15;1.45;;;21.20;55.50;;;;;;5089364;28;20623;-70
2022/05/17 08:19:19;;;;;;;2.85;1.45;;;21.10;55.50;;;;;;5091716;28;20209;-72
2022/05/17 08:21:45;;;;;;;2.65;1.33;;;21.20;55.50;;;;;;5091201;28;20177;-71
2022/05/17 08:24:10;;;;;;;2.42;1.30;;;21.00;55.50;;;;;;5091093;28;20626;-71
2022/05/17 08:29:20;;;;;;;3.88;1.40;;;21.10;55.50;;;;;;5091629;28;20180;-71
2022/05/17 08:34:29;;;;;;;1.30;1.20;;;21.10;55.50;;;;;;5094026;28;20181;-71
2022/05/17 08:36:55;;;;;;;2.13;1.30;;;21.10;55.40;;;;;;5094394;28;20169;-69
2022/05/17 08:39:20;;;;;;;3.90;1.42;;;21.10;55.40;;;;;;5095267;28;20201;-70
2022/05/17 08:41:50;;;;;;;1.55;1.10;;;21.10;55.40;;;;;;5094979;28;20202;-70
2022/05/17 08:44:19;;;;;;;2.10;1.35;;;21.10;55.50;;;;;;5093420;28;20523;-68
2022/05/17 08:46:51;;;;;;;2.05;1.25;;;21.10;55.40;;;;;;5093797;28;20216;-69
2022/05/17 08:49:23;;;;;;;3.63;1.50;;;21.20;55.40;;;;;;5095695;28;20274;-72
2022/05/17 08:51:55;;;;;;;2.40;1.30;;;21.10;55.40;;;;;;5092953;28;20170;-70
2022/05/17 08:54:24;;;;;;;4.20;1.48;;;21.20;55.40;;;;;;5093836;28;20356;-72
2022/05/17 08:56:55;;;;;;;2.90;1.45;;;21.20;55.30;;;;;;5093797;28;20181;-71
2022/05/17 08:59:22;;;;;;;3.33;1.30;;;21.20;55.30;;;;;;5093088;28;20312;-71
2022/05/17 09:01:59;;;;;;;4.38;1.55;;;21.20;55.30;;;;;;5094729;28;20173;-70
2022/05/17 09:04:45;;;;;;;2.75;1.15;;;21.20;55.30;;;;;;5093691;28;20169;-71
2022/05/17 09:07:27;;;;;;;2.47;1.20;;;21.20;55.30;;;;;;5094469;28;20225;-67
2022/05/17 09:10:11;;;;;;;1.60;1.10;;;21.20;55.30;;;;;;5094798;28;20197;-70
2022/05/17 09:12:45;;;;;;;2.85;1.50;;;21.20;55.20;;;;;;5092662;28;20538;-70
2022/05/17 09:15:13;;;;;;;2.28;1.30;;;21.30;55.30;;;;;;5094582;28;20222;-71
2022/05/17 09:17:38;;;;;;;3.75;1.42;;;21.30;55.20;;;;;;5093374;28;20180;-69
2022/05/17 09:20:04;;;;;;;2.38;1.38;;;21.30;55.50;;;;;;5094125;28;20223;-68
2022/05/17 09:22:30;;;;;;;2.83;1.38;;;21.40;55.50;;;;;;5094708;28;20262;-70
2022/05/17 09:25:00;;;;;;;2.13;1.08;;;21.40;55.40;;;;;;5094201;28;20720;-68
2022/05/17 09:27:28;;;;;;;1.75;1.27;;;21.40;55.50;;;;;;5093820;28;20253;-69
2022/05/17 09:29:58;;;;;;;1.98;1.30;;;21.40;55.40;;;;;;5092814;28;20181;-68
2022/05/17 09:32:31;;;;;;;3.70;1.55;;;21.40;55.50;;;;;;5093156;28;20629;-68
2022/05/17 09:35:02;;;;;;;2.90;1.30;;;21.50;55.50;;;;;;5093558;28;20166;-69
2022/05/17 09:37:38;;;;;;;2.75;1.35;;;21.50;55.40;;;;;;5093909;28;20224;-71
2022/05/17 09:40:06;;;;;;;1.17;1.08;;;21.50;55.30;;;;;;5091736;28;20220;-70
2022/05/17 09:42:42;;;;;;;2.22;1.10;;;21.50;55.30;;;;;;5092116;28;20235;-70
2022/05/17 09:45:12;;;;;;;1.75;1.05;;;21.50;55.30;;;;;;5092289;28;20232;-70
2022/05/17 09:47:54;;;;;;;2.60;1.23;;;21.40;55.30;;;;;;5092626;28;20261;-70
2022/05/17 09:53:10;;;;;;;2.92;1.35;;;21.40;55.30;;;;;;5093478;28;20195;-70
2022/05/17 09:55:35;;;;;;;2.13;1.15;;;21.40;55.30;;;;;;5092596;28;20174;-73
2022/05/17 09:58:09;;;;;;;2.08;1.60;;;21.40;55.30;;;;;;5091695;28;20218;-72
2022/05/17 10:00:46;;;;;;;1.38;0.93;;;21.40;55.30;;;;;;5074923;28;20200;-71
2022/05/17 10:03:31;;;;;;;2.17;1.17;;;21.50;55.30;;;;;;5091592;28;20178;-70
2022/05/17 10:05:59;;;;;;;2.33;1.35;;;21.40;55.30;;;;;;5092685;28;20221;-69
2022/05/17 10:08:29;;;;;;;1.38;1.02;;;21.40;55.30;;;;;;5092284;28;20181;-71
2022/05/17 10:11:01;;;;;;;2.70;1.10;;;21.40;55.30;;;;;;5092623;28;20251;-73
2022/05/17 10:13:35;;;;;;;1.73;1.23;;;21.50;55.30;;;;;;5093031;28;20174;-73
2022/05/17 10:16:07;;;;;;;1.35;1.20;;;21.50;55.20;;;;;;5091088;28;20260;-72
2022/05/17 10:18:42;;;;;;;1.95;1.10;;;21.60;55.20;;;;;;5075670;28;20248;-72
2022/05/17 10:21:47;;;;;;;1.77;1.05;;;21.50;55.70;;;;;;5091830;28;20634;-73
2022/05/17 10:24:25;;;;;;;2.40;1.27;;;21.60;55.10;;;;;;5087944;28;20177;-72
2022/05/17 10:27:00;;;;;;;2.08;1.10;;;21.60;55.10;;;;;;5075704;28;20207;-72
2022/05/17 10:29:40;;;;;;;1.83;1.13;;;21.60;55.00;;;;;;5074305;28;20212;-72
2022/05/17 10:32:25;;;;;;;2.53;1.20;;;21.80;55.10;;;;;;5091748;28;20166;-71
2022/05/17 10:35:20;;;;;;;1.02;0.90;;;21.70;54.90;;;;;;5091726;28;20280;-71
2022/05/17 10:37:48;;;;;;;1.60;1.30;;;21.70;54.80;;;;;;5090527;28;20184;-71
2022/05/17 10:40:19;;;;;;;2.47;1.30;;;21.80;54.80;;;;;;5091049;28;20716;-71
2022/05/17 10:42:45;;;;;;;2.13;1.20;;;21.80;54.70;;;;;;5090954;28;20200;-70
2022/05/17 10:45:18;;;;;;;1.42;1.10;;;21.90;54.70;;;;;;5092117;28;20603;-70
2022/05/17 10:48:11;;;;;;;1.83;1.15;;;21.90;54.70;;;;;;5074637;28;20173;-70
2022/05/17 10:50:54;;;;;;;2.78;1.00;;;21.90;54.70;;;;;;5090009;28;20178;-70
2022/05/17 10:53:48;;;;;;;3.45;1.30;;;21.90;54.80;;;;;;5090999;28;20640;-71
2022/05/17 10:56:29;;;;;;;3.38;1.30;;;22.00;54.70;;;;;;5091841;28;20568;-70
2022/05/17 10:59:04;;;;;;;3.05;1.60;;;22.10;54.70;;;;;;5090076;28;20651;-71
2022/05/17 11:01:52;;;;;;;3.40;1.20;;;22.10;54.70;;;;;;5090897;28;20195;-69
2022/05/17 11:04:57;;;;;;;4.18;1.10;;;22.10;54.70;;;;;;5080083;28;20560;-71
2022/05/17 11:07:37;;;;;;;3.00;1.25;;;22.20;54.80;;;;;;5090818;28;20252;-70
2022/05/17 11:10:28;;;;;;;1.98;1.20;;;22.20;54.70;;;;;;5090911;28;20173;-70
2022/05/17 11:12:59;;;;;;;3.03;1.23;;;22.30;54.80;;;;;;5089861;28;20181;-72
2022/05/17 11:15:33;;;;;;;3.38;1.20;;;22.30;54.80;;;;;;5090811;28;20178;-72
2022/05/17 11:18:02;;;;;;;2.92;1.35;;;22.30;54.70;;;;;;5090365;28;20174;-71
2022/05/17 11:20:44;;;;;;;2.70;1.33;;;22.30;55.40;;;;;;5091332;28;20182;-72
2022/05/17 11:23:37;;;;;;;3.72;1.30;;;22.30;54.70;;;;;;5090601;28;20178;-71
2022/05/17 11:26:15;;;;;;;4.05;1.90;;;22.30;54.70;;;;;;5089716;28;20174;-71
2022/05/17 11:28:55;;;;;;;3.83;1.13;;;22.30;54.80;;;;;;5091448;28;20602;-70
2022/05/17 11:31:29;;;;;;;2.38;1.30;;;22.20;54.90;;;;;;5092557;28;20258;-69
2022/05/17 11:34:23;;;;;;;3.78;1.02;;;22.20;54.90;;;;;;5089682;28;20302;-69
2022/05/17 11:36:50;;;;;;;2.17;0.98;;;22.20;55.00;;;;;;5090564;28;20166;-70
2022/05/17 11:39:36;;;;;;;1.90;1.23;;;22.20;55.00;;;;;;5090657;28;20239;-69
2022/05/17 11:42:25;;;;;;;2.50;1.02;;;22.20;54.90;;;;;;5091767;28;20208;-69
2022/05/17 11:44:50;;;;;;;2.00;1.13;;;22.30;54.80;;;;;;5080541;28;20269;-69
2022/05/17 11:47:32;;;;;;;1.15;0.88;;;22.40;54.70;;;;;;5090880;28;20747;-68
2022/05/17 11:50:15;;;;;;;1.67;1.27;;;22.40;54.60;;;;;;5091321;28;20208;-69
2022/05/17 11:52:48;;;;;;;1.98;1.02;;;22.50;54.50;;;;;;5091652;28;20178;-69
2022/05/17 11:55:18;;;;;;;2.47;1.17;;;22.50;54.40;;;;;;5091112;28;20208;-70
2022/05/17 11:57:46;;;;;;;2.15;1.30;;;22.50;54.40;;;;;;5090145;28;20487;-70
2022/05/17 12:00:24;;;;;;;2.67;1.02;;;22.50;54.50;;;;;;5091764;28;20208;-69
2022/05/17 12:02:51;;;;;;;1.75;1.10;;;22.50;54.50;;;;;;5090818;28;20173;-68
2022/05/17 12:05:42;;;;;;;2.75;1.40;;;22.50;54.50;;;;;;5091911;28;20174;-69
2022/05/17 12:08:26;;;;;;;2.03;1.13;;;22.50;54.60;;;;;;5091267;28;20186;-69
2022/05/17 12:11:13;;;;;;;3.55;1.33;;;22.50;54.50;;;;;;5095805;28;20221;-70
2022/05/17 12:13:55;;;;;;;3.92;1.40;;;22.50;54.50;;;;;;5095706;28;20173;-72
2022/05/17 12:16:29;;;;;;;3.92;1.40;;;22.50;54.40;;;;;;5095067;28;20184;-71
2022/05/17 12:19:00;;;;;;;3.65;1.30;;;22.60;54.40;;;;;;5095639;28;20228;-72
2022/05/17 12:21:46;;;;;;;1.85;0.90;;;22.60;54.40;;;;;;5095999;28;20244;-73
2022/05/17 12:24:39;;;;;;;2.13;1.20;;;22.60;54.30;;;;;;5095940;28;20192;-70
2022/05/17 12:27:22;;;;;;;2.42;1.23;;;22.60;54.30;;;;;;5094448;28;20189;-69
2022/05/17 12:33:22;;;;;;;1.25;1.13;;;22.70;54.30;;;;;;5087981;28;20185;-68
2022/05/17 12:35:48;;;;;;;1.05;0.77;;;22.70;54.20;;;;;;5094692;28;20182;-68
2022/05/17 12:44:08;;;;;;;1.05;0.75;;;22.80;54.20;;;;;;5094320;28;20244;-67
2022/05/17 12:46:36;;;;;;;1.35;0.95;;;22.80;54.10;;;;;;5094061;28;20569;-68
2022/05/17 12:49:12;;;;;;;2.25;0.90;;;22.80;54.10;;;;;;5093635;28;20269;-69
2022/05/17 12:51:38;;;;;;;4.20;1.25;;;22.90;54.30;;;;;;5092865;28;20173;-71
2022/05/17 12:54:04;;;;;;;3.38;1.60;;;22.90;54.30;;;;;;5093865;28;20230;-72
2022/05/17 12:56:37;;;;;;;2.45;1.20;;;22.90;54.20;;;;;;5093720;28;20508;-72
2022/05/17 12:59:04;;;;;;;4.38;1.30;;;22.90;54.20;;;;;;5094067;28;20699;-70
2022/05/17 13:01:35;;;;;;;1.70;0.98;;;22.90;54.30;;;;;;5095165;28;20174;-68
2022/05/17 13:04:12;;;;;;;4.32;1.33;;;22.90;54.30;;;;;;5093963;28;20552;-67
2022/05/17 13:06:48;;;;;;;2.95;1.20;;;23.00;54.20;;;;;;5094302;28;20294;-66
2022/05/17 13:09:19;;;;;;;2.67;1.10;;;23.10;54.10;;;;;;5094954;28;20174;-67
2022/05/17 13:11:45;;;;;;;2.88;1.30;;;23.20;54.10;;;;;;5093681;28;20577;-68
2022/05/17 13:14:22;;;;;;;2.20;1.00;;;23.60;54.20;;;;;;5094722;28;20665;-69
2022/05/17 13:16:49;;;;;;;1.88;1.10;;;23.30;53.90;;;;;;5094154;28;20635;-69
2022/05/17 13:19:16;;;;;;;3.17;1.42;;;23.30;53.90;;;;;;5093462;28;20232;-68
2022/05/17 13:21:51;;;;;;;3.65;1.13;;;23.40;53.80;;;;;;5092948;28;20174;-68